Itaete, Brazil
Current Conditions -  °F | °C
As of 11:00 AM on Monday 22 Dec 2014 (Local Time) from SBQV Reporting Station
Broken Clouds Broken Clouds  
Wind Chill: 79°   Ceiling: 2000
Heat Index: 81°   Visibility: 6mi
Dew Point: 66°   Wind: 5mph
Humidity: 65%   Direction: 110°ESE
Pressure: 30.12"   Gusts: NA
Location:  12.99°S, 40.97°W
Report Text: SBQV 221400Z 11004KT 9999 BKN020 26/19 Q1020
Loading
Personal Weather Stations






























Interactive Weather Map New forecast layout! Learn more

10-Day Weather Forecast

Advertisements
Track Severe Weather on mobile